createdAt,value
2022-09-16T00:01:21.442Z,13.27
2022-09-16T00:06:26.390Z,12.40
2022-09-16T00:11:29.106Z,12.63
2022-09-16T00:16:31.195Z,12.07
2022-09-16T00:21:34.300Z,12.90
2022-09-16T00:26:35.966Z,10.23
2022-09-16T00:31:37.743Z,9.02
2022-09-16T00:36:40.880Z,8.65
2022-09-16T00:41:42.702Z,12.02
2022-09-16T00:46:47.206Z,8.52
2022-09-16T00:51:54.737Z,8.73
2022-09-16T00:56:59.183Z,8.40
2022-09-16T01:02:05.894Z,9.60
2022-09-16T01:07:09.082Z,8.63
2022-09-16T01:12:10.778Z,80.90
2022-09-16T01:17:17.748Z,8.07
2022-09-16T01:22:38.404Z,8.00
2022-09-16T01:28:03.240Z,11.10
2022-09-16T01:33:11.684Z,7.80
2022-09-16T01:38:26.282Z,7.85
2022-09-16T01:43:39.201Z,394.47
2022-09-16T01:48:53.020Z,7.93
2022-09-16T01:54:04.224Z,11.15
2022-09-16T01:59:10.227Z,12.07
2022-09-16T02:04:17.591Z,8.65
2022-09-16T02:09:23.260Z,14.93
2022-09-16T02:14:28.268Z,8.77
2022-09-16T02:19:36.954Z,9.43
2022-09-16T02:24:41.723Z,8.70
2022-09-16T02:29:48.464Z,8.60
2022-09-16T02:40:36.843Z,209.77
2022-09-16T02:45:46.473Z,89.03
2022-09-16T02:50:52.680Z,9.60
2022-09-16T02:55:59.461Z,8.27
2022-09-16T03:01:01.968Z,128.98
2022-09-16T03:06:19.335Z,16.67
2022-09-16T03:11:48.082Z,16.02
2022-09-16T03:17:00.635Z,17.83
2022-09-16T03:22:10.343Z,16.33
2022-09-16T03:27:18.470Z,13.90
2022-09-16T03:32:24.045Z,15.68
2022-09-16T03:37:28.738Z,13.95
2022-09-16T03:42:31.850Z,113.12
2022-09-16T03:47:34.035Z,15.90
2022-09-16T03:52:39.385Z,13.20
2022-09-16T03:57:52.759Z,248.48
2022-09-16T04:02:54.864Z,323.52
2022-09-16T04:08:22.448Z,56.40
2022-09-16T04:13:26.044Z,34.03
2022-09-16T04:18:29.975Z,24.33
2022-09-16T04:23:31.703Z,24.05
2022-09-16T04:28:35.080Z,20.37
2022-09-16T04:33:37.247Z,18.55
2022-09-16T04:38:39.919Z,107.20
2022-09-16T04:43:43.022Z,21.08
2022-09-16T04:48:47.425Z,20.67
2022-09-16T04:53:50.354Z,18.13
2022-09-16T04:58:55.357Z,107.32
2022-09-16T05:03:59.084Z,103.07
2022-09-16T05:09:01.464Z,314.55
2022-09-16T05:14:06.893Z,151.63
2022-09-16T05:19:10.488Z,17.70
2022-09-16T05:24:13.449Z,29.42
2022-09-16T05:58:17.661Z,8.60
2022-09-16T06:03:19.361Z,17.87
2022-09-16T06:08:21.144Z,101.35
2022-09-16T06:13:24.236Z,30.25
2022-09-16T06:18:28.003Z,26.87
2022-09-16T06:23:29.965Z,107.78
2022-09-16T06:28:33.336Z,17.67
2022-09-16T06:33:35.745Z,18.12
2022-09-16T06:38:37.455Z,19.70
2022-09-16T06:43:41.208Z,24.65
2022-09-16T06:48:51.379Z,24.40
2022-09-16T06:53:54.525Z,24.20
2022-09-16T06:58:57.826Z,28.33
2022-09-16T07:04:03.065Z,26.75
2022-09-16T07:14:08.490Z,29.58
2022-09-16T07:19:10.618Z,25.27
2022-09-16T07:24:13.838Z,23.58
2022-09-16T07:29:18.690Z,24.80
2022-09-16T07:34:20.469Z,25.20
2022-09-16T07:39:22.342Z,27.13
2022-09-16T07:44:26.089Z,26.30
2022-09-16T07:49:27.857Z,25.48
2022-09-16T07:54:29.592Z,33.63
2022-09-16T07:59:32.667Z,25.02
2022-09-16T08:04:34.450Z,25.80
2022-09-16T08:09:39.834Z,25.27
2022-09-16T08:14:45.175Z,25.25
2022-09-16T08:19:46.857Z,26.50
2022-09-16T08:24:48.525Z,24.80
2022-09-16T08:29:51.734Z,26.08
2022-09-16T08:34:53.516Z,25.30
2022-09-16T08:39:55.471Z,8.48
2022-09-16T08:45:09.308Z,7.90
2022-09-16T08:50:15.824Z,6.95
2022-09-16T08:55:22.270Z,7.93
2022-09-16T09:00:25.560Z,8.50
2022-09-16T09:05:34.306Z,7.93
2022-09-16T09:10:46.088Z,7.80
2022-09-16T09:15:56.610Z,7.62
2022-09-16T09:21:17.824Z,7.03
2022-09-16T09:26:22.614Z,7.45
2022-09-16T09:31:35.099Z,8.02
2022-09-16T09:36:48.460Z,7.85
2022-09-16T09:41:53.831Z,7.03
2022-09-16T09:47:01.627Z,7.37
2022-09-16T09:52:12.685Z,6.72
2022-09-16T09:57:28.917Z,10.52
2022-09-16T10:02:40.149Z,6.72
2022-09-16T10:07:51.237Z,8.00
2022-09-16T10:51:36.087Z,7.03
2022-09-16T11:26:51.834Z,7.00
2022-09-16T11:30:46.568Z,5.95
2022-09-16T11:41:58.097Z,6.70
2022-09-16T11:47:12.197Z,6.80
2022-09-16T11:52:32.077Z,6.12
2022-09-16T11:57:39.352Z,6.78
2022-09-16T12:02:45.425Z,6.82
2022-09-16T12:07:54.784Z,5.25
2022-09-16T12:13:01.198Z,7.10
2022-09-16T12:18:12.047Z,6.65
2022-09-16T12:23:18.304Z,55.42
2022-09-16T12:28:25.950Z,7.53
2022-09-16T12:33:32.128Z,4.82
2022-09-16T12:38:35.792Z,7.60
2022-09-16T12:44:16.697Z,10.23
2022-09-16T12:49:46.682Z,34.42
2022-09-16T12:55:24.453Z,39.05
2022-09-16T13:00:32.349Z,1999.90
2022-09-16T13:05:37.772Z,1999.90
2022-09-16T13:17:02.399Z,1999.90
2022-09-16T13:22:31.046Z,25.77
2022-09-16T13:27:36.094Z,16.60
2022-09-16T13:32:39.874Z,1999.90
2022-09-16T13:37:41.796Z,12.70
2022-09-16T13:42:44.974Z,6.60
2022-09-16T13:47:49.524Z,6.97
2022-09-16T13:52:51.545Z,6.93
2022-09-16T13:58:00.723Z,6.72
2022-09-16T14:03:40.609Z,7.05
2022-09-16T14:08:53.384Z,6.55
2022-09-16T14:14:05.759Z,6.93
2022-09-16T14:19:18.707Z,7.93
2022-09-16T14:24:20.808Z,6.30
2022-09-16T14:29:24.837Z,7.00
2022-09-16T14:34:30.579Z,6.00
2022-09-16T14:39:33.589Z,6.15
2022-09-16T14:44:40.100Z,7.18
2022-09-16T14:49:42.828Z,8.15
2022-09-16T14:54:44.803Z,7.32
2022-09-16T14:59:48.592Z,7.60
2022-09-16T15:04:54.811Z,7.30
2022-09-16T15:10:01.522Z,7.10
2022-09-16T15:15:08.242Z,6.93
2022-09-16T15:25:53.698Z,6.90
2022-09-16T15:30:59.366Z,7.60
2022-09-16T15:36:01.835Z,6.85
2022-09-16T15:41:11.473Z,6.65
2022-09-16T15:46:18.405Z,5.97
2022-09-16T15:51:29.073Z,6.35
2022-09-16T16:02:19.456Z,5.65
2022-09-16T16:07:40.248Z,1054.95
2022-09-16T16:12:42.048Z,6.03
2022-09-16T16:17:49.747Z,9.60
2022-09-16T16:43:59.257Z,6.37
2022-09-16T16:49:01.076Z,6.28
2022-09-16T16:54:04.123Z,7.22
2022-09-16T16:59:07.496Z,5.82
2022-09-16T17:04:09.952Z,6.12
2022-09-16T17:09:15.775Z,6.32
2022-09-16T17:14:20.134Z,8.27
2022-09-16T17:19:23.576Z,6.03
2022-09-16T17:24:25.247Z,7.28
2022-09-16T17:29:28.422Z,7.20
2022-09-16T17:39:48.192Z,6.25
2022-09-16T17:45:14.929Z,6.72
2022-09-16T17:50:19.744Z,8.02
2022-09-16T17:55:24.509Z,7.32
2022-09-16T18:00:27.588Z,7.82
2022-09-16T18:05:30.312Z,7.22
2022-09-16T18:10:32.478Z,7.22
2022-09-16T18:15:35.564Z,10.32
2022-09-16T18:20:37.291Z,6.80
2022-09-16T18:25:39.027Z,83.75
2022-09-16T18:30:42.332Z,6.10
2022-09-16T18:35:44.013Z,6.85
2022-09-16T18:40:45.877Z,6.15
2022-09-16T18:45:49.069Z,6.32
2022-09-16T18:50:50.798Z,7.32
2022-09-16T18:55:53.076Z,0.20
2022-09-16T19:00:56.470Z,7.47
2022-09-16T19:05:58.359Z,7.18
2022-09-16T19:11:02.900Z,1999.90
2022-09-16T19:16:06.395Z,1999.90
2022-09-16T19:21:13.437Z,1999.90
2022-09-16T19:26:15.916Z,1999.90
2022-09-16T19:31:19.084Z,1999.90
2022-09-16T19:36:22.825Z,7.20
2022-09-16T19:41:26.797Z,360.08
2022-09-16T19:46:32.890Z,257.62
2022-09-16T19:51:34.787Z,5.45
2022-09-16T19:56:36.535Z,135.43
2022-09-16T20:01:39.714Z,97.15
2022-09-16T20:06:42.313Z,6.75
2022-09-16T20:11:45.716Z,400.23
2022-09-16T20:16:49.732Z,7.32
2022-09-16T20:21:51.662Z,70.65
2022-09-16T20:26:55.038Z,56.95
2022-09-16T20:31:58.319Z,52.28
2022-09-16T20:37:00.228Z,47.10
2022-09-16T20:42:02.383Z,8.98
2022-09-16T20:47:05.621Z,364.02
2022-09-16T20:52:07.427Z,6.80
2022-09-16T20:57:09.216Z,6.47
2022-09-16T21:02:12.421Z,12.82
2022-09-16T21:07:14.164Z,11.65
2022-09-16T21:12:15.905Z,15.05
2022-09-16T21:17:19.008Z,94.82
2022-09-16T21:22:20.824Z,89.68
2022-09-16T21:27:22.631Z,8.82
2022-09-16T21:32:25.835Z,135.23
2022-09-16T21:37:27.552Z,70.28
2022-09-16T21:42:29.228Z,1.27
2022-09-16T21:53:17.954Z,4.55
2022-09-16T21:58:19.691Z,7.82
2022-09-16T22:03:21.462Z,3.10
2022-09-16T22:20:07.879Z,2.47
2022-09-16T22:25:09.819Z,2.25
2022-09-16T22:30:12.601Z,1.65
2022-09-16T22:35:15.868Z,1.35
2022-09-16T22:40:17.768Z,0.45
2022-09-16T22:45:19.479Z,0.20
2022-09-16T22:50:22.572Z,0.30
2022-09-16T22:55:24.446Z,0.20
2022-09-16T23:00:32.144Z,0.20
2022-09-16T23:05:35.455Z,1.40
2022-09-16T23:10:39.795Z,0.55
2022-09-16T23:15:44.443Z,0.60
2022-09-16T23:20:56.250Z,0.60
2022-09-16T23:26:02.124Z,0.40
2022-09-16T23:31:11.518Z,1.17
2022-09-16T23:36:16.342Z,0.40
2022-09-16T23:41:20.349Z,0.40
2022-09-16T23:46:24.055Z,0.60
2022-09-16T23:51:28.809Z,56.40
2022-09-16T23:56:30.649Z,0.40
